sensor_id;sensor_type;location;lat;lon;timestamp;P1;durP1;ratioP1;P2;durP2;ratioP2
66189;SDS011;52992;52.084;5.412;2023-05-13T00:01:28;34.27;;;32.47;;
66189;SDS011;52992;52.084;5.412;2023-05-13T00:03:55;34.10;;;32.20;;
66189;SDS011;52992;52.084;5.412;2023-05-13T00:06:22;37.00;;;34.83;;
66189;SDS011;52992;52.084;5.412;2023-05-13T00:08:49;35.30;;;33.23;;
66189;SDS011;52992;52.084;5.412;2023-05-13T00:11:16;34.10;;;32.40;;
66189;SDS011;52992;52.084;5.412;2023-05-13T00:13:42;35.13;;;33.37;;
66189;SDS011;52992;52.084;5.412;2023-05-13T00:16:09;34.03;;;32.33;;
66189;SDS011;52992;52.084;5.412;2023-05-13T00:18:36;35.10;;;33.20;;
66189;SDS011;52992;52.084;5.412;2023-05-13T00:21:03;34.27;;;32.40;;
66189;SDS011;52992;52.084;5.412;2023-05-13T00:23:30;35.77;;;33.73;;
66189;SDS011;52992;52.084;5.412;2023-05-13T00:25:58;35.53;;;33.73;;
66189;SDS011;52992;52.084;5.412;2023-05-13T00:28:25;35.10;;;33.23;;
66189;SDS011;52992;52.084;5.412;2023-05-13T00:30:52;36.40;;;34.60;;
66189;SDS011;52992;52.084;5.412;2023-05-13T00:33:19;35.83;;;34.03;;
66189;SDS011;52992;52.084;5.412;2023-05-13T00:35:46;34.93;;;33.23;;
66189;SDS011;52992;52.084;5.412;2023-05-13T00:38:13;35.87;;;34.03;;
66189;SDS011;52992;52.084;5.412;2023-05-13T00:40:39;37.70;;;35.70;;
66189;SDS011;52992;52.084;5.412;2023-05-13T00:43:07;38.93;;;36.73;;
66189;SDS011;52992;52.084;5.412;2023-05-13T00:45:35;36.03;;;34.23;;
66189;SDS011;52992;52.084;5.412;2023-05-13T00:48:04;37.20;;;35.03;;
66189;SDS011;52992;52.084;5.412;2023-05-13T00:50:32;36.50;;;34.30;;
66189;SDS011;52992;52.084;5.412;2023-05-13T00:52:59;38.87;;;36.80;;
66189;SDS011;52992;52.084;5.412;2023-05-13T00:55:28;35.60;;;33.53;;
66189;SDS011;52992;52.084;5.412;2023-05-13T00:57:55;37.30;;;35.40;;
66189;SDS011;52992;52.084;5.412;2023-05-13T01:00:22;35.17;;;33.27;;
66189;SDS011;52992;52.084;5.412;2023-05-13T01:07:58;37.27;;;35.23;;
66189;SDS011;52992;52.084;5.412;2023-05-13T01:10:40;34.63;;;32.63;;
66189;SDS011;52992;52.084;5.412;2023-05-13T01:13:16;33.90;;;32.17;;
66189;SDS011;52992;52.084;5.412;2023-05-13T01:15:50;36.00;;;34.07;;
66189;SDS011;52992;52.084;5.412;2023-05-13T01:18:24;35.77;;;33.83;;
66189;SDS011;52992;52.084;5.412;2023-05-13T01:20:56;35.63;;;33.60;;
66189;SDS011;52992;52.084;5.412;2023-05-13T01:23:26;36.30;;;34.20;;
66189;SDS011;52992;52.084;5.412;2023-05-13T01:25:53;35.73;;;33.87;;
66189;SDS011;52992;52.084;5.412;2023-05-13T01:28:20;36.20;;;34.30;;
66189;SDS011;52992;52.084;5.412;2023-05-13T01:30:50;35.10;;;33.20;;
66189;SDS011;52992;52.084;5.412;2023-05-13T01:33:18;35.53;;;33.73;;
66189;SDS011;52992;52.084;5.412;2023-05-13T01:35:45;35.80;;;33.90;;
66189;SDS011;52992;52.084;5.412;2023-05-13T01:38:15;38.07;;;36.07;;
66189;SDS011;52992;52.084;5.412;2023-05-13T01:40:46;36.30;;;34.20;;
66189;SDS011;52992;52.084;5.412;2023-05-13T01:43:14;40.03;;;37.83;;
66189;SDS011;52992;52.084;5.412;2023-05-13T01:45:41;36.10;;;34.27;;
66189;SDS011;52992;52.084;5.412;2023-05-13T01:48:10;38.03;;;35.80;;
66189;SDS011;52992;52.084;5.412;2023-05-13T01:50:41;37.23;;;35.13;;
66189;SDS011;52992;52.084;5.412;2023-05-13T01:53:08;39.47;;;36.73;;
66189;SDS011;52992;52.084;5.412;2023-05-13T01:55:37;38.00;;;35.97;;
66189;SDS011;52992;52.084;5.412;2023-05-13T01:58:04;37.63;;;35.53;;
66189;SDS011;52992;52.084;5.412;2023-05-13T02:00:31;36.57;;;34.57;;
66189;SDS011;52992;52.084;5.412;2023-05-13T02:02:58;36.13;;;33.97;;
66189;SDS011;52992;52.084;5.412;2023-05-13T02:05:25;37.17;;;35.33;;
66189;SDS011;52992;52.084;5.412;2023-05-13T02:07:53;38.87;;;36.80;;
66189;SDS011;52992;52.084;5.412;2023-05-13T02:10:20;36.83;;;34.63;;
66189;SDS011;52992;52.084;5.412;2023-05-13T02:12:47;37.23;;;35.33;;
66189;SDS011;52992;52.084;5.412;2023-05-13T02:15:14;37.60;;;35.50;;
66189;SDS011;52992;52.084;5.412;2023-05-13T02:17:41;38.47;;;36.30;;
66189;SDS011;52992;52.084;5.412;2023-05-13T02:20:08;39.10;;;37.10;;
66189;SDS011;52992;52.084;5.412;2023-05-13T02:22:35;36.40;;;34.47;;
66189;SDS011;52992;52.084;5.412;2023-05-13T02:25:05;37.00;;;34.80;;
66189;SDS011;52992;52.084;5.412;2023-05-13T02:27:32;37.43;;;35.33;;
66189;SDS011;52992;52.084;5.412;2023-05-13T02:29:59;40.10;;;37.80;;
66189;SDS011;52992;52.084;5.412;2023-05-13T02:32:26;40.67;;;38.57;;
66189;SDS011;52992;52.084;5.412;2023-05-13T02:34:53;38.63;;;36.53;;
66189;SDS011;52992;52.084;5.412;2023-05-13T02:37:20;39.77;;;37.67;;
66189;SDS011;52992;52.084;5.412;2023-05-13T02:39:56;39.33;;;37.03;;
66189;SDS011;52992;52.084;5.412;2023-05-13T02:42:23;38.67;;;36.57;;
66189;SDS011;52992;52.084;5.412;2023-05-13T02:44:50;38.73;;;36.33;;
66189;SDS011;52992;52.084;5.412;2023-05-13T02:47:17;40.93;;;38.73;;
66189;SDS011;52992;52.084;5.412;2023-05-13T02:49:44;42.90;;;40.57;;
66189;SDS011;52992;52.084;5.412;2023-05-13T02:52:11;40.03;;;37.63;;
66189;SDS011;52992;52.084;5.412;2023-05-13T02:54:38;39.77;;;37.47;;
66189;SDS011;52992;52.084;5.412;2023-05-13T02:57:05;38.87;;;36.60;;
66189;SDS011;52992;52.084;5.412;2023-05-13T02:59:32;40.47;;;38.27;;
66189;SDS011;52992;52.084;5.412;2023-05-13T03:01:59;40.83;;;38.63;;
66189;SDS011;52992;52.084;5.412;2023-05-13T03:04:26;39.97;;;37.67;;
66189;SDS011;52992;52.084;5.412;2023-05-13T03:06:52;41.43;;;39.10;;
66189;SDS011;52992;52.084;5.412;2023-05-13T03:09:19;41.17;;;38.90;;
66189;SDS011;52992;52.084;5.412;2023-05-13T03:11:46;39.13;;;36.73;;
66189;SDS011;52992;52.084;5.412;2023-05-13T03:14:13;43.13;;;40.07;;
66189;SDS011;52992;52.084;5.412;2023-05-13T03:16:40;46.43;;;43.87;;
66189;SDS011;52992;52.084;5.412;2023-05-13T03:19:07;47.87;;;45.10;;
66189;SDS011;52992;52.084;5.412;2023-05-13T03:21:34;44.13;;;41.37;;
66189;SDS011;52992;52.084;5.412;2023-05-13T03:24:02;41.97;;;39.63;;
66189;SDS011;52992;52.084;5.412;2023-05-13T03:26:29;60.57;;;57.47;;
66189;SDS011;52992;52.084;5.412;2023-05-13T03:28:56;51.30;;;48.40;;
66189;SDS011;52992;52.084;5.412;2023-05-13T03:31:23;47.47;;;44.37;;
66189;SDS011;52992;52.084;5.412;2023-05-13T03:33:50;42.83;;;40.03;;
66189;SDS011;52992;52.084;5.412;2023-05-13T03:36:17;42.23;;;39.73;;
66189;SDS011;52992;52.084;5.412;2023-05-13T03:38:44;42.80;;;40.40;;
66189;SDS011;52992;52.084;5.412;2023-05-13T03:41:11;45.57;;;42.77;;
66189;SDS011;52992;52.084;5.412;2023-05-13T03:43:38;47.17;;;44.17;;
66189;SDS011;52992;52.084;5.412;2023-05-13T03:46:09;45.33;;;42.57;;
66189;SDS011;52992;52.084;5.412;2023-05-13T03:48:36;45.97;;;43.30;;
66189;SDS011;52992;52.084;5.412;2023-05-13T03:51:03;46.07;;;43.30;;
66189;SDS011;52992;52.084;5.412;2023-05-13T03:53:31;47.63;;;44.83;;
66189;SDS011;52992;52.084;5.412;2023-05-13T03:55:58;45.27;;;42.57;;
66189;SDS011;52992;52.084;5.412;2023-05-13T03:58:26;48.83;;;45.93;;
66189;SDS011;52992;52.084;5.412;2023-05-13T04:00:53;48.40;;;45.60;;
66189;SDS011;52992;52.084;5.412;2023-05-13T04:03:20;50.77;;;47.67;;
66189;SDS011;52992;52.084;5.412;2023-05-13T04:05:48;48.83;;;46.03;;
66189;SDS011;52992;52.084;5.412;2023-05-13T04:08:16;47.33;;;44.63;;
66189;SDS011;52992;52.084;5.412;2023-05-13T04:10:43;50.63;;;47.83;;
66189;SDS011;52992;52.084;5.412;2023-05-13T04:13:10;50.50;;;47.60;;
66189;SDS011;52992;52.084;5.412;2023-05-13T04:15:37;47.80;;;44.53;;
66189;SDS011;52992;52.084;5.412;2023-05-13T04:18:04;48.40;;;45.50;;
66189;SDS011;52992;52.084;5.412;2023-05-13T04:20:32;48.97;;;45.93;;
66189;SDS011;52992;52.084;5.412;2023-05-13T04:23:00;50.77;;;47.83;;
66189;SDS011;52992;52.084;5.412;2023-05-13T04:25:27;52.63;;;49.43;;
66189;SDS011;52992;52.084;5.412;2023-05-13T04:27:54;49.23;;;45.80;;
66189;SDS011;52992;52.084;5.412;2023-05-13T04:30:31;47.93;;;44.93;;
66189;SDS011;52992;52.084;5.412;2023-05-13T04:32:58;48.23;;;45.33;;
66189;SDS011;52992;52.084;5.412;2023-05-13T04:35:25;49.20;;;46.30;;
66189;SDS011;52992;52.084;5.412;2023-05-13T04:37:56;50.30;;;47.03;;
66189;SDS011;52992;52.084;5.412;2023-05-13T04:40:23;50.07;;;46.77;;
66189;SDS011;52992;52.084;5.412;2023-05-13T04:42:51;48.60;;;45.67;;
66189;SDS011;52992;52.084;5.412;2023-05-13T04:45:37;48.43;;;45.37;;
66189;SDS011;52992;52.084;5.412;2023-05-13T04:48:06;48.43;;;45.43;;
66189;SDS011;52992;52.084;5.412;2023-05-13T04:50:34;48.73;;;45.63;;
66189;SDS011;52992;52.084;5.412;2023-05-13T04:53:01;50.20;;;47.00;;
66189;SDS011;52992;52.084;5.412;2023-05-13T04:55:28;50.70;;;47.70;;
66189;SDS011;52992;52.084;5.412;2023-05-13T04:57:55;51.77;;;48.67;;
66189;SDS011;52992;52.084;5.412;2023-05-13T05:00:22;50.83;;;47.53;;
66189;SDS011;52992;52.084;5.412;2023-05-13T05:02:50;50.27;;;47.37;;
66189;SDS011;52992;52.084;5.412;2023-05-13T05:05:18;51.47;;;47.80;;
66189;SDS011;52992;52.084;5.412;2023-05-13T05:07:45;49.17;;;46.23;;
66189;SDS011;52992;52.084;5.412;2023-05-13T05:10:12;50.10;;;46.87;;
66189;SDS011;52992;52.084;5.412;2023-05-13T05:12:47;49.57;;;46.57;;
66189;SDS011;52992;52.084;5.412;2023-05-13T05:15:14;49.77;;;46.87;;
66189;SDS011;52992;52.084;5.412;2023-05-13T05:17:45;49.03;;;45.70;;
66189;SDS011;52992;52.084;5.412;2023-05-13T05:20:12;49.83;;;46.90;;
66189;SDS011;52992;52.084;5.412;2023-05-13T05:22:39;51.30;;;48.10;;
66189;SDS011;52992;52.084;5.412;2023-05-13T05:25:09;50.63;;;47.30;;
66189;SDS011;52992;52.084;5.412;2023-05-13T05:27:37;48.47;;;45.57;;
66189;SDS011;52992;52.084;5.412;2023-05-13T05:30:04;52.03;;;48.73;;
66189;SDS011;52992;52.084;5.412;2023-05-13T05:32:33;51.27;;;47.93;;
66189;SDS011;52992;52.084;5.412;2023-05-13T05:35:02;52.47;;;49.07;;
66189;SDS011;52992;52.084;5.412;2023-05-13T05:37:30;51.47;;;48.40;;
66189;SDS011;52992;52.084;5.412;2023-05-13T05:39:57;51.97;;;48.33;;
66189;SDS011;52992;52.084;5.412;2023-05-13T05:42:25;49.10;;;46.13;;
66189;SDS011;52992;52.084;5.412;2023-05-13T05:44:51;51.20;;;47.57;;
66189;SDS011;52992;52.084;5.412;2023-05-13T05:47:18;49.63;;;46.53;;
66189;SDS011;52992;52.084;5.412;2023-05-13T05:49:45;50.60;;;47.40;;
66189;SDS011;52992;52.084;5.412;2023-05-13T05:52:13;50.83;;;47.80;;
66189;SDS011;52992;52.084;5.412;2023-05-13T05:54:40;49.60;;;46.33;;
66189;SDS011;52992;52.084;5.412;2023-05-13T05:57:06;51.57;;;48.33;;
66189;SDS011;52992;52.084;5.412;2023-05-13T05:59:33;49.53;;;46.10;;
66189;SDS011;52992;52.084;5.412;2023-05-13T06:02:00;49.47;;;46.50;;
66189;SDS011;52992;52.084;5.412;2023-05-13T06:04:27;50.57;;;47.03;;
66189;SDS011;52992;52.084;5.412;2023-05-13T06:06:54;51.80;;;48.23;;
66189;SDS011;52992;52.084;5.412;2023-05-13T06:09:21;48.83;;;45.33;;
66189;SDS011;52992;52.084;5.412;2023-05-13T06:11:49;50.47;;;47.43;;
66189;SDS011;52992;52.084;5.412;2023-05-13T06:14:16;51.33;;;47.97;;
66189;SDS011;52992;52.084;5.412;2023-05-13T06:16:43;49.57;;;46.57;;
66189;SDS011;52992;52.084;5.412;2023-05-13T06:19:09;50.20;;;47.20;;
66189;SDS011;52992;52.084;5.412;2023-05-13T06:21:36;50.17;;;47.07;;
66189;SDS011;52992;52.084;5.412;2023-05-13T06:24:03;49.90;;;46.37;;
66189;SDS011;52992;52.084;5.412;2023-05-13T06:26:30;46.60;;;43.83;;
66189;SDS011;52992;52.084;5.412;2023-05-13T06:28:58;50.03;;;46.87;;
66189;SDS011;52992;52.084;5.412;2023-05-13T06:31:25;51.27;;;47.97;;
66189;SDS011;52992;52.084;5.412;2023-05-13T06:33:53;48.80;;;45.70;;
66189;SDS011;52992;52.084;5.412;2023-05-13T06:36:22;49.07;;;45.97;;
66189;SDS011;52992;52.084;5.412;2023-05-13T06:38:49;55.15;;;51.70;;
66189;SDS011;52992;52.084;5.412;2023-05-13T06:41:16;52.17;;;48.40;;
66189;SDS011;52992;52.084;5.412;2023-05-13T06:43:43;51.27;;;48.17;;
66189;SDS011;52992;52.084;5.412;2023-05-13T06:46:19;51.58;;;48.38;;
66189;SDS011;52992;52.084;5.412;2023-05-13T06:48:46;51.00;;;47.77;;
66189;SDS011;52992;52.084;5.412;2023-05-13T06:51:12;47.57;;;44.43;;
66189;SDS011;52992;52.084;5.412;2023-05-13T06:53:39;46.43;;;43.23;;
66189;SDS011;52992;52.084;5.412;2023-05-13T06:56:06;44.93;;;42.37;;
66189;SDS011;52992;52.084;5.412;2023-05-13T06:58:33;48.10;;;45.23;;
66189;SDS011;52992;52.084;5.412;2023-05-13T07:01:00;51.30;;;48.00;;
66189;SDS011;52992;52.084;5.412;2023-05-13T07:03:27;51.13;;;47.90;;
66189;SDS011;52992;52.084;5.412;2023-05-13T07:05:54;46.07;;;42.73;;
66189;SDS011;52992;52.084;5.412;2023-05-13T07:08:21;49.80;;;46.80;;
66189;SDS011;52992;52.084;5.412;2023-05-13T07:10:48;51.77;;;48.77;;
66189;SDS011;52992;52.084;5.412;2023-05-13T07:13:16;52.00;;;49.07;;
66189;SDS011;52992;52.084;5.412;2023-05-13T07:15:44;51.20;;;48.20;;
66189;SDS011;52992;52.084;5.412;2023-05-13T07:18:12;49.80;;;46.60;;
66189;SDS011;52992;52.084;5.412;2023-05-13T07:20:39;45.97;;;42.77;;
66189;SDS011;52992;52.084;5.412;2023-05-13T07:23:06;44.30;;;41.43;;
66189;SDS011;52992;52.084;5.412;2023-05-13T07:25:33;42.43;;;39.60;;
66189;SDS011;52992;52.084;5.412;2023-05-13T07:28:00;42.30;;;39.10;;
66189;SDS011;52992;52.084;5.412;2023-05-13T07:30:27;45.60;;;42.50;;
66189;SDS011;52992;52.084;5.412;2023-05-13T07:32:54;50.80;;;47.70;;
66189;SDS011;52992;52.084;5.412;2023-05-13T07:35:21;40.13;;;37.57;;
66189;SDS011;52992;52.084;5.412;2023-05-13T07:37:48;38.83;;;36.50;;
66189;SDS011;52992;52.084;5.412;2023-05-13T07:40:15;41.53;;;38.60;;
66189;SDS011;52992;52.084;5.412;2023-05-13T07:42:43;38.47;;;36.00;;
66189;SDS011;52992;52.084;5.412;2023-05-13T07:45:09;40.07;;;37.67;;
66189;SDS011;52992;52.084;5.412;2023-05-13T07:47:36;41.47;;;38.90;;
66189;SDS011;52992;52.084;5.412;2023-05-13T07:50:04;36.63;;;34.33;;
66189;SDS011;52992;52.084;5.412;2023-05-13T07:52:31;38.33;;;35.57;;
66189;SDS011;52992;52.084;5.412;2023-05-13T07:54:58;38.30;;;35.63;;
66189;SDS011;52992;52.084;5.412;2023-05-13T07:57:25;40.13;;;37.83;;
66189;SDS011;52992;52.084;5.412;2023-05-13T07:59:51;38.10;;;35.50;;
66189;SDS011;52992;52.084;5.412;2023-05-13T08:02:19;38.40;;;35.73;;
66189;SDS011;52992;52.084;5.412;2023-05-13T08:04:46;38.80;;;36.37;;
66189;SDS011;52992;52.084;5.412;2023-05-13T08:07:13;36.63;;;34.40;;
66189;SDS011;52992;52.084;5.412;2023-05-13T08:09:40;36.83;;;34.70;;
66189;SDS011;52992;52.084;5.412;2023-05-13T08:12:07;37.73;;;35.53;;
66189;SDS011;52992;52.084;5.412;2023-05-13T08:14:35;36.37;;;34.10;;
66189;SDS011;52992;52.084;5.412;2023-05-13T08:17:03;34.93;;;32.80;;
66189;SDS011;52992;52.084;5.412;2023-05-13T08:19:31;35.00;;;32.90;;
66189;SDS011;52992;52.084;5.412;2023-05-13T08:21:58;34.73;;;32.67;;
66189;SDS011;52992;52.084;5.412;2023-05-13T08:24:25;37.70;;;35.40;;
66189;SDS011;52992;52.084;5.412;2023-05-13T08:26:52;34.70;;;32.50;;
66189;SDS011;52992;52.084;5.412;2023-05-13T08:29:18;35.37;;;32.90;;
66189;SDS011;52992;52.084;5.412;2023-05-13T08:31:45;33.50;;;31.50;;
66189;SDS011;52992;52.084;5.412;2023-05-13T08:34:13;35.23;;;32.90;;
66189;SDS011;52992;52.084;5.412;2023-05-13T08:36:40;33.97;;;32.10;;
66189;SDS011;52992;52.084;5.412;2023-05-13T08:39:06;35.67;;;33.33;;
66189;SDS011;52992;52.084;5.412;2023-05-13T08:41:33;33.50;;;31.50;;
66189;SDS011;52992;52.084;5.412;2023-05-13T08:44:02;33.67;;;31.63;;
66189;SDS011;52992;52.084;5.412;2023-05-13T08:46:31;34.47;;;32.43;;
66189;SDS011;52992;52.084;5.412;2023-05-13T08:49:00;34.77;;;32.60;;
66189;SDS011;52992;52.084;5.412;2023-05-13T08:51:27;34.60;;;32.60;;
66189;SDS011;52992;52.084;5.412;2023-05-13T08:53:54;33.10;;;31.33;;
66189;SDS011;52992;52.084;5.412;2023-05-13T08:56:21;33.47;;;31.57;;
66189;SDS011;52992;52.084;5.412;2023-05-13T08:58:50;33.87;;;31.47;;
66189;SDS011;52992;52.084;5.412;2023-05-13T09:01:17;33.50;;;31.50;;
66189;SDS011;52992;52.084;5.412;2023-05-13T09:03:55;33.43;;;31.43;;
66189;SDS011;52992;52.084;5.412;2023-05-13T09:06:27;32.30;;;30.30;;
66189;SDS011;52992;52.084;5.412;2023-05-13T09:08:54;32.93;;;30.87;;
66189;SDS011;52992;52.084;5.412;2023-05-13T09:11:21;33.60;;;31.33;;
66189;SDS011;52992;52.084;5.412;2023-05-13T09:13:58;31.93;;;30.10;;
66189;SDS011;52992;52.084;5.412;2023-05-13T09:16:26;32.27;;;30.40;;
66189;SDS011;52992;52.084;5.412;2023-05-13T09:18:56;33.47;;;31.30;;
66189;SDS011;52992;52.084;5.412;2023-05-13T09:21:29;33.07;;;31.13;;
66189;SDS011;52992;52.084;5.412;2023-05-13T09:24:01;32.77;;;30.83;;
66189;SDS011;52992;52.084;5.412;2023-05-13T09:26:36;32.77;;;30.97;;
66189;SDS011;52992;52.084;5.412;2023-05-13T09:32:05;31.00;;;29.23;;
66189;SDS011;52992;52.084;5.412;2023-05-13T09:34:35;31.30;;;28.97;;
66189;SDS011;52992;52.084;5.412;2023-05-13T09:37:05;32.10;;;30.10;;
66189;SDS011;52992;52.084;5.412;2023-05-13T09:39:42;31.37;;;29.50;;
66189;SDS011;52992;52.084;5.412;2023-05-13T09:42:16;30.00;;;28.10;;
66189;SDS011;52992;52.084;5.412;2023-05-13T09:44:44;30.10;;;28.17;;
66189;SDS011;52992;52.084;5.412;2023-05-13T09:47:12;29.57;;;27.77;;
66189;SDS011;52992;52.084;5.412;2023-05-13T09:49:40;28.03;;;26.33;;
66189;SDS011;52992;52.084;5.412;2023-05-13T09:52:08;31.03;;;29.03;;
66189;SDS011;52992;52.084;5.412;2023-05-13T09:54:37;28.70;;;27.10;;
66189;SDS011;52992;52.084;5.412;2023-05-13T09:57:04;28.13;;;26.47;;
66189;SDS011;52992;52.084;5.412;2023-05-13T09:59:32;28.80;;;27.10;;
66189;SDS011;52992;52.084;5.412;2023-05-13T10:02:00;30.03;;;28.33;;
66189;SDS011;52992;52.084;5.412;2023-05-13T10:04:31;30.13;;;28.10;;
66189;SDS011;52992;52.084;5.412;2023-05-13T10:06:58;28.30;;;26.70;;
66189;SDS011;52992;52.084;5.412;2023-05-13T10:09:29;28.90;;;27.17;;
66189;SDS011;52992;52.084;5.412;2023-05-13T10:12:02;30.37;;;28.37;;
66189;SDS011;52992;52.084;5.412;2023-05-13T10:14:33;29.40;;;27.50;;
66189;SDS011;52992;52.084;5.412;2023-05-13T10:17:03;31.67;;;29.80;;
66189;SDS011;52992;52.084;5.412;2023-05-13T10:19:31;28.60;;;27.00;;
66189;SDS011;52992;52.084;5.412;2023-05-13T10:21:59;27.63;;;26.03;;
66189;SDS011;52992;52.084;5.412;2023-05-13T10:24:27;29.80;;;27.90;;
66189;SDS011;52992;52.084;5.412;2023-05-13T10:26:55;31.60;;;29.90;;
66189;SDS011;52992;52.084;5.412;2023-05-13T10:29:23;29.63;;;27.83;;
66189;SDS011;52992;52.084;5.412;2023-05-13T10:31:51;27.07;;;25.47;;
66189;SDS011;52992;52.084;5.412;2023-05-13T10:34:20;27.73;;;25.97;;
66189;SDS011;52992;52.084;5.412;2023-05-13T10:45:43;29.37;;;27.57;;
66189;SDS011;52992;52.084;5.412;2023-05-13T10:48:14;26.70;;;25.10;;
66189;SDS011;52992;52.084;5.412;2023-05-13T10:50:53;29.23;;;27.53;;
66189;SDS011;52992;52.084;5.412;2023-05-13T10:53:24;27.33;;;25.90;;
66189;SDS011;52992;52.084;5.412;2023-05-13T10:55:57;29.00;;;27.13;;
66189;SDS011;52992;52.084;5.412;2023-05-13T10:58:28;27.80;;;25.90;;
66189;SDS011;52992;52.084;5.412;2023-05-13T11:01:13;27.67;;;26.17;;
66189;SDS011;52992;52.084;5.412;2023-05-13T11:03:53;28.37;;;26.60;;
66189;SDS011;52992;52.084;5.412;2023-05-13T11:06:23;30.70;;;28.57;;
66189;SDS011;52992;52.084;5.412;2023-05-13T11:08:54;27.40;;;25.93;;
66189;SDS011;52992;52.084;5.412;2023-05-13T11:13:49;28.07;;;25.77;;
66189;SDS011;52992;52.084;5.412;2023-05-13T11:16:17;29.00;;;27.20;;
66189;SDS011;52992;52.084;5.412;2023-05-13T11:18:44;26.07;;;24.27;;
66189;SDS011;52992;52.084;5.412;2023-05-13T11:21:11;25.93;;;24.53;;
66189;SDS011;52992;52.084;5.412;2023-05-13T11:26:20;24.70;;;23.33;;
66189;SDS011;52992;52.084;5.412;2023-05-13T11:29:12;24.60;;;23.20;;
66189;SDS011;52992;52.084;5.412;2023-05-13T11:31:45;24.20;;;22.80;;
66189;SDS011;52992;52.084;5.412;2023-05-13T11:34:16;26.23;;;24.53;;
66189;SDS011;52992;52.084;5.412;2023-05-13T11:36:50;24.43;;;23.00;;
66189;SDS011;52992;52.084;5.412;2023-05-13T11:39:21;24.37;;;22.83;;
66189;SDS011;52992;52.084;5.412;2023-05-13T11:41:52;25.00;;;23.70;;
66189;SDS011;52992;52.084;5.412;2023-05-13T11:44:23;24.17;;;22.90;;
66189;SDS011;52992;52.084;5.412;2023-05-13T11:46:55;25.70;;;24.13;;
66189;SDS011;52992;52.084;5.412;2023-05-13T11:49:38;23.80;;;22.47;;
66189;SDS011;52992;52.084;5.412;2023-05-13T11:52:06;23.90;;;22.57;;
66189;SDS011;52992;52.084;5.412;2023-05-13T11:59:47;24.87;;;23.47;;
66189;SDS011;52992;52.084;5.412;2023-05-13T12:02:21;24.50;;;23.00;;
66189;SDS011;52992;52.084;5.412;2023-05-13T12:04:50;25.27;;;23.60;;
66189;SDS011;52992;52.084;5.412;2023-05-13T12:07:23;24.13;;;22.73;;
66189;SDS011;52992;52.084;5.412;2023-05-13T12:09:51;22.17;;;20.97;;
66189;SDS011;52992;52.084;5.412;2023-05-13T12:12:21;22.37;;;20.90;;
66189;SDS011;52992;52.084;5.412;2023-05-13T12:14:48;22.80;;;21.47;;
66189;SDS011;52992;52.084;5.412;2023-05-13T12:17:16;24.27;;;22.97;;
66189;SDS011;52992;52.084;5.412;2023-05-13T12:28:15;23.83;;;22.53;;
66189;SDS011;52992;52.084;5.412;2023-05-13T12:31:02;21.40;;;20.30;;
66189;SDS011;52992;52.084;5.412;2023-05-13T12:33:41;21.30;;;19.90;;
66189;SDS011;52992;52.084;5.412;2023-05-13T12:39:10;21.37;;;20.20;;
66189;SDS011;52992;52.084;5.412;2023-05-13T12:41:38;20.25;;;19.10;;
66189;SDS011;52992;52.084;5.412;2023-05-13T12:44:07;20.07;;;19.07;;
66189;SDS011;52992;52.084;5.412;2023-05-13T12:46:35;20.50;;;19.30;;
66189;SDS011;52992;52.084;5.412;2023-05-13T12:49:03;21.20;;;19.97;;
66189;SDS011;52992;52.084;5.412;2023-05-13T12:51:30;19.47;;;18.43;;
66189;SDS011;52992;52.084;5.412;2023-05-13T12:54:00;21.27;;;19.87;;
66189;SDS011;52992;52.084;5.412;2023-05-13T12:56:27;21.10;;;20.00;;
66189;SDS011;52992;52.084;5.412;2023-05-13T12:58:54;21.07;;;20.03;;
66189;SDS011;52992;52.084;5.412;2023-05-13T13:01:21;21.07;;;19.97;;
66189;SDS011;52992;52.084;5.412;2023-05-13T13:03:48;21.73;;;20.43;;
66189;SDS011;52992;52.084;5.412;2023-05-13T13:06:16;20.53;;;19.43;;
66189;SDS011;52992;52.084;5.412;2023-05-13T13:08:43;21.53;;;20.33;;
66189;SDS011;52992;52.084;5.412;2023-05-13T13:11:10;20.50;;;19.40;;
66189;SDS011;52992;52.084;5.412;2023-05-13T13:13:43;21.10;;;20.00;;
66189;SDS011;52992;52.084;5.412;2023-05-13T13:16:11;20.77;;;19.77;;
66189;SDS011;52992;52.084;5.412;2023-05-13T13:18:41;22.20;;;21.00;;
66189;SDS011;52992;52.084;5.412;2023-05-13T13:21:08;20.87;;;19.67;;
66189;SDS011;52992;52.084;5.412;2023-05-13T13:23:35;21.87;;;20.57;;
66189;SDS011;52992;52.084;5.412;2023-05-13T13:26:02;20.83;;;19.83;;
66189;SDS011;52992;52.084;5.412;2023-05-13T13:28:29;22.57;;;21.47;;
66189;SDS011;52992;52.084;5.412;2023-05-13T13:30:57;21.37;;;20.27;;
66189;SDS011;52992;52.084;5.412;2023-05-13T13:33:25;21.20;;;20.20;;
66189;SDS011;52992;52.084;5.412;2023-05-13T13:35:51;21.17;;;19.97;;
66189;SDS011;52992;52.084;5.412;2023-05-13T13:38:18;21.23;;;20.03;;
66189;SDS011;52992;52.084;5.412;2023-05-13T13:40:45;21.33;;;20.33;;
66189;SDS011;52992;52.084;5.412;2023-05-13T13:43:12;21.97;;;20.70;;
66189;SDS011;52992;52.084;5.412;2023-05-13T13:45:39;21.10;;;20.00;;
66189;SDS011;52992;52.084;5.412;2023-05-13T13:48:06;20.33;;;19.37;;
66189;SDS011;52992;52.084;5.412;2023-05-13T13:50:33;21.63;;;20.53;;
66189;SDS011;52992;52.084;5.412;2023-05-13T13:52:59;21.70;;;20.47;;
66189;SDS011;52992;52.084;5.412;2023-05-13T13:55:26;21.27;;;20.00;;
66189;SDS011;52992;52.084;5.412;2023-05-13T13:57:53;20.50;;;19.50;;
66189;SDS011;52992;52.084;5.412;2023-05-13T14:00:20;19.97;;;18.97;;
66189;SDS011;52992;52.084;5.412;2023-05-13T14:02:47;20.93;;;19.83;;
66189;SDS011;52992;52.084;5.412;2023-05-13T14:05:14;21.20;;;20.10;;
66189;SDS011;52992;52.084;5.412;2023-05-13T14:07:41;21.50;;;20.27;;
66189;SDS011;52992;52.084;5.412;2023-05-13T14:10:08;21.43;;;20.43;;
66189;SDS011;52992;52.084;5.412;2023-05-13T14:12:36;21.27;;;20.27;;
66189;SDS011;52992;52.084;5.412;2023-05-13T14:15:03;20.30;;;19.30;;
66189;SDS011;52992;52.084;5.412;2023-05-13T14:17:31;20.40;;;19.30;;
66189;SDS011;52992;52.084;5.412;2023-05-13T14:19:58;19.67;;;18.77;;
66189;SDS011;52992;52.084;5.412;2023-05-13T14:22:25;20.47;;;19.47;;
66189;SDS011;52992;52.084;5.412;2023-05-13T14:24:52;20.07;;;19.07;;
66189;SDS011;52992;52.084;5.412;2023-05-13T14:27:19;20.33;;;19.23;;
66189;SDS011;52992;52.084;5.412;2023-05-13T14:29:47;20.27;;;19.23;;
66189;SDS011;52992;52.084;5.412;2023-05-13T14:32:14;21.70;;;20.20;;
66189;SDS011;52992;52.084;5.412;2023-05-13T14:34:41;20.70;;;19.70;;
66189;SDS011;52992;52.084;5.412;2023-05-13T14:37:08;21.67;;;20.67;;
66189;SDS011;52992;52.084;5.412;2023-05-13T14:39:35;21.17;;;19.97;;
66189;SDS011;52992;52.084;5.412;2023-05-13T14:42:02;19.90;;;18.97;;
66189;SDS011;52992;52.084;5.412;2023-05-13T14:44:30;19.53;;;18.53;;
66189;SDS011;52992;52.084;5.412;2023-05-13T14:46:57;20.20;;;19.20;;
66189;SDS011;52992;52.084;5.412;2023-05-13T14:49:24;20.37;;;19.27;;
66189;SDS011;52992;52.084;5.412;2023-05-13T14:51:51;20.93;;;19.93;;
66189;SDS011;52992;52.084;5.412;2023-05-13T14:54:19;20.43;;;19.40;;
66189;SDS011;52992;52.084;5.412;2023-05-13T14:56:47;21.93;;;20.40;;
66189;SDS011;52992;52.084;5.412;2023-05-13T14:59:14;21.30;;;20.30;;
66189;SDS011;52992;52.084;5.412;2023-05-13T15:01:41;21.10;;;19.70;;
66189;SDS011;52992;52.084;5.412;2023-05-13T15:04:07;20.83;;;19.70;;
66189;SDS011;52992;52.084;5.412;2023-05-13T15:06:35;20.27;;;19.13;;